Time;durP1;ratioP1;P1;durP2;ratioP2;P2;SDS_P1;SDS_P2;PMS_P1;PMS_P2;Temp;Humidity;BMP_temperature;BMP_pressure;BME280_temperature;BME280_humidity;BME280_pressure;Samples;Min_cycle;Max_cycle;Signal;HPM_P1;HPM_P2
2023/10/08 00:00:49;;;;;;;2.50;1.42;;;;;;;18.82;69.18;153428.63;10524198;28;20044;-72
2023/10/08 00:05:52;;;;;;;1.85;1.10;;;;;;;18.88;69.07;153442.91;10540372;28;20054;-71
2023/10/08 00:10:56;;;;;;;2.22;1.30;;;;;;;18.83;69.29;153431.22;10542378;28;20035;-71
2023/10/08 00:15:57;;;;;;;3.00;1.50;;;;;;;18.84;69.53;153433.81;10541054;28;20039;-71
2023/10/08 00:26:16;;;;;;;2.47;1.50;;;;;;;18.79;70.13;153419.53;10541142;28;20032;-70
2023/10/08 00:31:18;;;;;;;5.60;1.40;;;;;;;18.90;69.58;153448.06;10540596;28;20044;-71
2023/10/08 00:36:20;;;;;;;2.03;1.65;;;;;;;18.84;69.98;153433.81;10541967;28;20047;-71
2023/10/08 00:41:22;;;;;;;1.70;1.38;;;;;;;18.81;69.95;153426.00;10539783;28;20102;-71
2023/10/08 00:46:26;;;;;;;2.88;1.73;;;;;;;18.69;72.02;153393.53;10548434;28;20556;-70
2023/10/08 00:51:40;;;;;;;2.22;1.48;;;;;;;18.59;72.44;153370.16;10547420;28;20066;-70
2023/10/08 00:56:57;;;;;;;5.32;3.17;;;;;;;18.59;72.46;153370.16;10549498;28;20128;-70
2023/10/08 01:02:05;;;;;;;2.72;1.40;;;;;;;18.66;72.20;153387.00;10546892;28;20105;-71
2023/10/08 01:07:12;;;;;;;2.53;1.60;;;;;;;18.57;73.21;153364.94;10546844;28;20043;-71
2023/10/08 01:12:23;;;;;;;3.30;1.40;;;;;;;18.50;73.75;153346.72;10547386;28;20416;-70
2023/10/08 01:17:26;;;;;;;2.47;1.55;;;;;;;18.43;75.97;153328.56;10530660;28;20500;-70
2023/10/08 01:22:29;;;;;;;2.05;1.40;;;;;;;18.34;76.51;153306.50;10547698;28;20068;-71
2023/10/08 01:27:34;;;;;;;2.85;1.38;;;;;;;18.15;78.76;153258.47;10545389;28;20040;-71
2023/10/08 01:32:36;;;;;;;2.50;1.60;;;;;;;17.89;82.14;153190.97;10547181;28;20040;-71
2023/10/08 01:37:40;;;;;;;2.72;1.85;;;;;;;17.74;87.86;153153.31;10546893;28;20044;-70
2023/10/08 01:42:42;;;;;;;4.03;2.72;;;;;;;17.20;98.14;153014.44;10547217;28;20047;-71
2023/10/08 01:47:44;;;;;;;4.68;3.70;;;;;;;16.72;100.00;152893.78;10544919;28;20377;-71
2023/10/08 01:52:49;;;;;;;4.18;3.78;;;;;;;16.51;100.00;152839.25;10545156;28;20044;-72
2023/10/08 01:57:54;;;;;;;0.43;0.43;;;;;;;15.62;100.00;152613.63;10545684;28;20032;-71
2023/10/08 02:02:58;;;;;;;0.20;0.20;;;;;;;14.77;100.00;152397.28;10545838;28;20048;-73
2023/10/08 02:08:03;;;;;;;0.00;0.00;;;;;;;14.19;100.00;152250.91;10545412;28;20048;-74
2023/10/08 02:13:05;;;;;;;0.00;0.00;;;;;;;14.14;100.00;152239.28;10546614;28;20048;-73
2023/10/08 02:18:08;;;;;;;0.00;0.00;;;;;;;13.81;100.00;152153.81;10545809;28;20044;-73
2023/10/08 02:23:13;;;;;;;0.00;0.00;;;;;;;13.68;100.00;152120.16;10547061;28;20043;-72
2023/10/08 02:28:15;;;;;;;0.00;0.00;;;;;;;13.28;100.00;152019.25;10543973;28;20058;-73
2023/10/08 02:33:17;;;;;;;0.00;0.00;;;;;;;13.16;100.00;151989.47;10544226;28;20051;-73
2023/10/08 02:38:21;;;;;;;0.00;0.00;;;;;;;12.97;100.00;151941.63;10544463;28;20110;-74
2023/10/08 02:43:23;;;;;;;0.15;0.00;;;;;;;12.96;100.00;151939.00;10546606;28;20044;-74
2023/10/08 02:48:25;;;;;;;0.00;0.00;;;;;;;12.96;100.00;151937.72;10544222;28;20044;-73
2023/10/08 02:53:29;;;;;;;0.00;0.00;;;;;;;12.74;100.00;151882.09;10542917;28;20056;-74
2023/10/08 02:58:31;;;;;;;0.00;0.00;;;;;;;12.79;100.00;151895.00;10544385;28;20126;-73
2023/10/08 03:03:36;;;;;;;0.00;0.00;;;;;;;12.75;100.00;151884.66;10527814;28;20044;-73
2023/10/08 03:08:41;;;;;;;0.00;0.00;;;;;;;12.54;100.00;151832.97;10544187;28;20048;-74
2023/10/08 03:13:46;;;;;;;0.00;0.00;;;;;;;12.55;100.00;151835.53;10542999;28;20044;-74
2023/10/08 03:18:50;;;;;;;0.00;0.00;;;;;;;12.41;100.00;151798.06;10542674;28;20048;-74
2023/10/08 03:23:56;;;;;;;0.00;0.00;;;;;;;12.36;100.00;151787.72;10542515;28;20189;-73
2023/10/08 03:29:15;;;;;;;0.13;0.00;;;;;;;12.35;100.00;151785.16;10547287;28;20067;-73
2023/10/08 03:34:19;;;;;;;0.00;0.00;;;;;;;11.83;100.00;151652.00;10542293;28;20139;-74
2023/10/08 03:39:23;;;;;;;0.00;0.00;;;;;;;11.48;100.00;151564.06;10544403;28;20036;-74
2023/10/08 03:44:25;;;;;;;0.03;0.00;;;;;;;11.35;100.00;151531.75;10544563;28;20050;-74
2023/10/08 03:49:31;;;;;;;0.00;0.00;;;;;;;11.42;100.00;151547.25;10546092;28;20032;-75
2023/10/08 03:54:35;;;;;;;0.00;0.00;;;;;;;11.35;100.00;151530.47;10542228;28;20056;-74
2023/10/08 03:59:40;;;;;;;0.00;0.00;;;;;;;11.33;100.00;151525.28;10542100;28;20123;-73
2023/10/08 04:04:51;;;;;;;0.28;0.03;;;;;;;11.11;100.00;151471.06;10543919;28;20513;-74
2023/10/08 04:10:05;;;;;;;0.35;0.00;;;;;;;11.31;100.00;151520.13;10544865;28;20036;-73
2023/10/08 04:15:07;;;;;;;1.13;0.50;;;;;;;11.07;100.00;151460.72;10545036;28;20126;-73
2023/10/08 04:25:34;;;;;;;0.88;0.40;;;;;;;10.75;100.00;151379.31;10542785;28;20093;-74
2023/10/08 04:30:36;;;;;;;1.65;0.50;;;;;;;10.81;100.00;151394.84;10541761;28;20036;-74
2023/10/08 04:35:51;;;;;;;1.50;0.57;;;;;;;10.76;100.00;151381.94;10544307;28;20126;-74
2023/10/08 04:40:53;;;;;;;1.75;0.95;;;;;;;10.63;100.00;151347.09;10542125;28;20047;-73
2023/10/08 04:45:58;;;;;;;1.08;0.40;;;;;;;10.60;100.00;151341.91;10540537;28;20444;-74
2023/10/08 04:51:01;;;;;;;0.93;0.30;;;;;;;10.79;100.00;151389.66;10541123;28;20040;-73
2023/10/08 04:56:05;;;;;;;0.32;0.30;;;;;;;10.66;100.00;151356.09;10540897;28;20036;-73
2023/10/08 05:01:17;;;;;;;1.83;0.70;;;;;;;10.43;100.00;151298.00;10539176;28;20056;-73
2023/10/08 05:06:39;;;;;;;1.50;0.63;;;;;;;10.47;100.00;151308.31;10521962;28;20047;-74
2023/10/08 05:12:08;;;;;;;1.95;0.45;;;;;;;10.51;100.00;151317.38;10541060;28;20111;-73
2023/10/08 05:17:22;;;;;;;0.70;0.50;;;;;;;10.39;100.00;151286.38;10542185;28;20044;-73
2023/10/08 05:27:38;;;;;;;0.52;0.28;;;;;;;10.24;100.00;151248.91;10541231;28;20575;-73
2023/10/08 05:38:13;;;;;;;0.25;0.25;;;;;;;10.40;100.00;151288.94;10550820;28;20116;-74
2023/10/08 05:43:33;;;;;;;1.13;0.57;;;;;;;10.37;100.00;151281.25;10550814;28;20104;-74
2023/10/08 05:48:45;;;;;;;0.73;0.40;;;;;;;10.25;100.00;151252.81;10550695;28;20455;-74
2023/10/08 05:53:49;;;;;;;1.05;0.40;;;;;;;10.28;100.00;151260.56;10549089;28;20040;-72
2023/10/08 05:59:13;;;;;;;0.47;0.30;;;;;;;10.35;100.00;151277.34;10530066;28;20468;-73
2023/10/08 06:04:42;;;;;;;0.50;0.30;;;;;;;10.29;100.00;151263.16;10546840;28;20040;-73
2023/10/08 06:10:01;;;;;;;1.38;0.38;;;;;;;10.27;100.00;151258.00;10546896;28;20095;-73
2023/10/08 06:15:11;;;;;;;0.73;0.35;;;;;;;10.29;100.00;151263.16;10547691;28;20044;-73
2023/10/08 06:20:16;;;;;;;1.75;0.38;;;;;;;10.08;100.00;151210.16;10546807;28;20115;-73
2023/10/08 06:25:23;;;;;;;1.08;0.30;;;;;;;9.82;100.00;151143.06;10548003;28;20400;-73
2023/10/08 06:30:29;;;;;;;0.85;0.35;;;;;;;9.77;100.00;151130.16;10528440;28;20040;-73
2023/10/08 06:35:32;;;;;;;1.13;0.43;;;;;;;9.79;100.00;151135.34;10545837;28;20091;-73
2023/10/08 06:45:46;;;;;;;0.45;0.20;;;;;;;10.16;100.00;151228.25;10544521;28;20047;-73
2023/10/08 06:50:50;;;;;;;1.15;0.40;;;;;;;10.11;100.00;151217.91;10545130;28;20040;-73
2023/10/08 06:56:03;;;;;;;0.47;0.40;;;;;;;10.30;100.00;151264.44;10542620;28;20113;-73
2023/10/08 07:01:08;;;;;;;0.28;0.20;;;;;;;10.35;100.00;151277.34;10544021;28;20036;-73
2023/10/08 07:11:34;;;;;;;0.35;0.35;;;;;;;10.38;100.00;151285.09;10543871;28;20039;-73
2023/10/08 07:16:37;;;;;;;1.10;0.40;;;;;;;10.24;100.00;151248.91;10542355;28;20032;-73
2023/10/08 07:21:44;;;;;;;1.45;0.60;;;;;;;10.25;100.00;151251.53;10543365;28;20056;-73
2023/10/08 07:26:47;;;;;;;0.88;0.60;;;;;;;10.27;100.00;151258.00;10543834;28;20074;-72
2023/10/08 07:31:52;;;;;;;0.63;0.30;;;;;;;10.30;100.00;151264.44;10543785;28;20070;-73
2023/10/08 07:36:55;;;;;;;1.13;0.50;;;;;;;10.35;100.00;151277.34;10543947;28;20066;-73
2023/10/08 07:41:58;;;;;;;0.80;0.43;;;;;;;10.49;100.00;151313.53;10540739;28;20071;-72
2023/10/08 07:47:00;;;;;;;0.50;0.20;;;;;;;10.28;100.00;151260.56;10542157;28;20093;-73
2023/10/08 07:52:05;;;;;;;1.02;0.40;;;;;;;10.34;100.00;151276.06;10542385;28;20118;-72
2023/10/08 07:57:11;;;;;;;1.33;0.47;;;;;;;10.34;100.00;151274.75;10541733;28;20047;-72
2023/10/08 08:02:15;;;;;;;1.47;0.60;;;;;;;10.72;100.00;151370.34;10541786;28;20561;-72
2023/10/08 08:07:17;;;;;;;0.73;0.47;;;;;;;10.92;100.00;151421.94;10541330;28;20067;-72
2023/10/08 08:12:22;;;;;;;1.10;0.47;;;;;;;10.87;100.00;151409.06;10541495;28;20074;-73
2023/10/08 08:17:25;;;;;;;3.30;2.00;;;;;;;10.86;100.00;151407.75;10540133;28;20055;-73
2023/10/08 08:22:40;;;;;;;1.63;0.80;;;;;;;10.89;100.00;151412.91;10541595;28;20044;-73
2023/10/08 08:27:48;;;;;;;2.00;0.95;;;;;;;10.77;100.00;151383.22;10539767;28;20086;-73
2023/10/08 08:32:51;;;;;;;2.60;1.70;;;;;;;10.94;100.00;151427.16;10553860;28;20043;-72
2023/10/08 08:37:54;;;;;;;2.75;1.05;;;;;;;11.12;100.00;151472.34;10548748;28;20044;-72
2023/10/08 08:42:58;;;;;;;1.05;0.60;;;;;;;10.88;100.00;151411.63;10580860;28;20088;-73
2023/10/08 08:48:01;;;;;;;2.03;0.68;;;;;;;11.07;100.00;151460.72;10558764;28;20039;-72
2023/10/08 08:53:04;;;;;;;0.95;0.50;;;;;;;11.21;100.00;151495.59;10539201;28;20059;-73
2023/10/08 08:58:11;;;;;;;1.40;0.80;;;;;;;11.26;100.00;151507.22;10568199;28;20403;-73
2023/10/08 09:03:13;;;;;;;2.28;1.00;;;;;;;11.27;100.00;151511.09;10565847;28;20042;-73
2023/10/08 09:08:18;;;;;;;1.95;0.90;;;;;;;11.34;100.00;151527.91;10539856;28;20476;-73
2023/10/08 09:13:22;;;;;;;1.45;0.70;;;;;;;11.50;100.00;151569.22;10549696;28;20043;-73
2023/10/08 09:18:27;;;;;;;4.03;0.68;;;;;;;11.63;100.00;151601.53;10549471;28;20040;-72
2023/10/08 09:23:29;;;;;;;1.00;0.60;;;;;;;11.74;100.00;151628.69;10550404;28;20058;-73
2023/10/08 09:28:34;;;;;;;2.15;0.80;;;;;;;11.40;100.00;151543.38;10522097;28;20101;-72
2023/10/08 09:33:36;;;;;;;1.10;0.60;;;;;;;11.65;100.00;151606.72;10546012;28;20040;-72
2023/10/08 09:38:39;;;;;;;2.42;1.08;;;;;;;11.71;100.00;151622.22;10549437;28;20377;-73
2023/10/08 09:43:41;;;;;;;1.15;0.60;;;;;;;11.54;100.00;151579.56;10547316;28;20048;-75
2023/10/08 09:48:51;;;;;;;1.38;0.70;;;;;;;11.79;100.00;151641.59;10528771;28;20048;-75
2023/10/08 09:54:11;;;;;;;1.23;0.60;;;;;;;11.71;100.00;151620.91;10514398;28;20036;-76
2023/10/08 09:59:14;;;;;;;1.45;0.60;;;;;;;11.57;100.00;151587.31;10512176;28;20044;-75
2023/10/08 10:04:31;;;;;;;3.30;0.90;;;;;;;11.90;100.00;151670.06;10538357;28;20048;-75
2023/10/08 10:09:36;;;;;;;1.98;0.80;;;;;;;12.04;100.00;151706.28;10535853;28;20036;-76
2023/10/08 10:14:48;;;;;;;2.65;0.80;;;;;;;12.32;100.00;151776.09;10544991;28;20093;-73
2023/10/08 10:19:54;;;;;;;6.43;1.35;;;;;;;12.36;100.00;151786.44;10546183;28;20099;-72
2023/10/08 10:25:14;;;;;;;2.50;0.70;;;;;;;13.00;97.60;151949.34;10528118;28;20099;-73
2023/10/08 10:30:18;;;;;;;2.45;0.90;;;;;;;12.77;99.60;151891.16;10544890;28;20067;-72
2023/10/08 10:35:27;;;;;;;2.95;0.77;;;;;;;12.79;100.00;151895.00;10584522;28;20043;-73
2023/10/08 10:40:39;;;;;;;3.15;0.93;;;;;;;12.90;93.42;151923.50;10567803;28;20046;-72
2023/10/08 10:45:42;;;;;;;2.42;0.80;;;;;;;12.85;93.67;151910.56;10588522;28;20043;-72
2023/10/08 10:51:08;;;;;;;1.52;0.75;;;;;;;13.16;96.97;151989.47;10586108;28;20089;-72
2023/10/08 10:56:18;;;;;;;1.90;0.98;;;;;;;13.18;95.24;151994.63;10579591;28;20503;-72
2023/10/08 11:01:29;;;;;;;1.52;0.63;;;;;;;13.01;88.64;151950.63;10586862;28;20057;-73
2023/10/08 11:06:35;;;;;;;1.20;0.60;;;;;;;13.32;85.87;152030.88;10587481;28;20043;-73
2023/10/08 11:11:41;;;;;;;1.98;0.98;;;;;;;13.47;86.12;152067.16;10586045;28;20036;-73
2023/10/08 11:16:43;;;;;;;2.77;0.87;;;;;;;13.12;84.44;151979.13;10585677;28;20047;-73
2023/10/08 11:21:53;;;;;;;1.73;0.60;;;;;;;13.24;85.78;152008.94;10585250;28;20048;-73
2023/10/08 11:32:17;;;;;;;1.90;0.50;;;;;;;12.91;82.10;151924.78;10585814;28;20093;-73
2023/10/08 11:37:35;;;;;;;1.50;0.52;;;;;;;12.72;84.67;151876.94;10567075;28;20054;-73
2023/10/08 11:47:42;;;;;;;2.10;0.50;;;;;;;12.82;82.14;151904.06;10584985;28;20031;-74
2023/10/08 11:52:44;;;;;;;1.27;0.50;;;;;;;13.17;81.09;151990.75;10566259;28;20522;-74
2023/10/08 11:57:50;;;;;;;2.63;0.70;;;;;;;13.10;83.39;151973.91;10566491;28;20036;-75
2023/10/08 12:02:56;;;;;;;1.67;0.67;;;;;;;13.27;82.71;152017.97;10584679;28;20391;-75
2023/10/08 12:07:58;;;;;;;1.20;0.60;;;;;;;13.37;83.04;152042.59;10584390;28;20072;-75
2023/10/08 12:13:00;;;;;;;0.93;0.60;;;;;;;13.80;80.14;152152.53;10587491;28;20043;-75
2023/10/08 12:18:08;;;;;;;3.63;2.00;;;;;;;13.50;80.02;152074.88;10587110;28;20403;-74
2023/10/08 12:23:11;;;;;;;3.08;0.60;;;;;;;13.48;78.77;152069.72;10584782;28;20050;-74
2023/10/08 12:28:15;;;;;;;1.50;1.23;;;;;;;13.97;71.27;152195.25;10583616;28;20491;-74
2023/10/08 12:33:19;;;;;;;2.22;0.70;;;;;;;14.07;70.55;152221.13;10567806;28;20097;-75
2023/10/08 12:38:22;;;;;;;1.23;0.70;;;;;;;13.72;73.40;152130.53;10586363;28;20043;-75
2023/10/08 12:43:27;;;;;;;1.27;0.60;;;;;;;13.48;76.13;152071.03;10591912;28;20047;-75
2023/10/08 12:48:29;;;;;;;1.55;0.47;;;;;;;13.31;76.23;152028.31;10592228;28;20499;-74
2023/10/08 12:53:34;;;;;;;0.95;0.50;;;;;;;13.36;75.96;152039.94;10593970;28;20044;-75
2023/10/08 12:58:44;;;;;;;1.23;0.30;;;;;;;13.62;74.73;152105.94;10591637;28;20050;-75
2023/10/08 13:03:47;;;;;;;2.13;0.60;;;;;;;13.68;75.32;152121.50;10591292;28;20115;-74
2023/10/08 13:08:53;;;;;;;2.45;0.60;;;;;;;13.73;72.66;152133.16;10590976;28;20510;-74
2023/10/08 13:13:57;;;;;;;1.45;0.57;;;;;;;13.78;72.78;152146.09;10592214;28;20040;-74
2023/10/08 13:18:59;;;;;;;0.60;0.35;;;;;;;13.80;70.53;152152.53;10575126;28;20054;-75
2023/10/08 13:24:02;;;;;;;2.33;0.55;;;;;;;13.48;73.03;152071.03;10554928;28;20096;-75
2023/10/08 13:29:05;;;;;;;2.75;0.75;;;;;;;13.45;72.90;152063.25;10573448;28;20048;-75
2023/10/08 13:34:12;;;;;;;1.55;0.45;;;;;;;13.58;70.96;152096.88;10572906;28;20040;-74
2023/10/08 13:39:18;;;;;;;;;;;;;;;13.29;73.69;152021.88;10594797;28;20086;-74
2023/10/08 13:44:28;;;;;;;1.47;0.40;;;;;;;13.54;73.40;152086.53;10572998;28;19920;-74
2023/10/08 13:49:32;;;;;;;2.17;0.47;;;;;;;13.46;70.70;152064.53;10591815;28;20043;-74
2023/10/08 13:54:39;;;;;;;1.02;0.50;;;;;;;13.20;70.93;151999.81;10574639;28;20047;-75
2023/10/08 13:59:43;;;;;;;;;;;;;;;13.15;71.48;151986.91;10596293;28;20050;-75
2023/10/08 14:04:50;;;;;;;1.02;0.40;;;;;;;13.31;71.51;152028.31;10556921;28;19924;-75
2023/10/08 14:09:53;;;;;;;1.42;0.75;;;;;;;13.29;72.03;152021.88;10571324;28;20040;-74
2023/10/08 14:14:55;;;;;;;1.52;0.57;;;;;;;13.38;71.67;152046.44;10570576;28;20044;-75
2023/10/08 14:20:07;;;;;;;1.77;0.60;;;;;;;13.38;70.88;152046.44;10587990;28;20491;-74
2023/10/08 14:25:12;;;;;;;0.50;0.50;;;;;;;13.42;72.53;152055.50;10590362;28;20046;-74
2023/10/08 14:30:20;;;;;;;1.40;0.60;;;;;;;13.55;72.81;152089.16;10588337;28;20048;-74
2023/10/08 14:46:06;;;;;;;0.80;0.43;;;;;;;14.41;64.76;152305.31;10589809;28;20123;-74
2023/10/08 14:51:12;;;;;;;3.45;1.08;;;;;;;14.33;63.43;152287.16;10570241;28;20119;-74
2023/10/08 14:56:15;;;;;;;1.25;0.50;;;;;;;14.40;65.98;152304.03;10568950;28;20507;-73
2023/10/08 15:01:17;;;;;;;1.83;0.90;;;;;;;14.17;68.53;152245.78;10587824;28;20039;-72
2023/10/08 15:06:20;;;;;;;1.17;0.60;;;;;;;14.09;67.66;152225.03;10591355;28;20035;-73
2023/10/08 15:11:22;;;;;;;1.60;0.80;;;;;;;14.02;69.18;152208.19;10569837;28;20046;-75
2023/10/08 15:16:26;;;;;;;0.93;0.50;;;;;;;13.66;71.94;152115.03;10587607;28;20055;-73
2023/10/08 15:21:29;;;;;;;1.73;0.63;;;;;;;13.55;72.44;152089.16;10587431;28;20031;-73
2023/10/08 15:26:33;;;;;;;1.85;0.55;;;;;;;13.66;71.54;152115.03;10589151;28;20071;-74
2023/10/08 15:31:36;;;;;;;0.95;0.47;;;;;;;13.48;72.56;152069.72;10585764;28;20035;-74
2023/10/08 15:36:41;;;;;;;0.60;0.60;;;;;;;13.50;70.00;152074.88;10585020;28;20050;-74
2023/10/08 15:41:43;;;;;;;0.90;0.50;;;;;;;13.19;73.26;151997.19;10586512;28;20503;-73
2023/10/08 15:46:45;;;;;;;2.20;0.70;;;;;;;13.14;75.09;151985.56;10585325;28;20073;-73
2023/10/08 15:51:47;;;;;;;2.35;0.70;;;;;;;13.00;76.49;151949.34;10588199;28;20028;-73
2023/10/08 15:56:49;;;;;;;1.20;0.70;;;;;;;12.87;77.15;151915.72;10567838;28;20407;-73
2023/10/08 16:01:51;;;;;;;1.95;0.85;;;;;;;12.67;79.93;151865.31;10585141;28;20043;-73
2023/10/08 16:06:53;;;;;;;1.20;0.80;;;;;;;12.67;79.60;151865.31;10550735;28;20047;-73
2023/10/08 16:11:57;;;;;;;2.95;0.90;;;;;;;12.23;85.68;151752.81;10588512;28;20036;-74
2023/10/08 16:16:59;;;;;;;1.23;1.10;;;;;;;12.02;88.75;151701.09;10584445;28;20063;-73
2023/10/08 16:22:01;;;;;;;1.58;0.82;;;;;;;12.02;89.29;151701.09;10584789;28;20097;-74
2023/10/08 16:27:03;;;;;;;1.15;0.70;;;;;;;12.02;90.30;151701.09;10584650;28;20054;-73
2023/10/08 16:32:06;;;;;;;2.28;1.50;;;;;;;11.87;92.90;151662.34;10591621;28;20051;-74
2023/10/08 16:37:09;;;;;;;1.60;1.10;;;;;;;11.78;94.13;151639.03;10567867;28;20047;-73
2023/10/08 16:42:12;;;;;;;2.65;1.50;;;;;;;11.79;94.55;151641.59;10570644;28;20065;-73
2023/10/08 16:47:17;;;;;;;1.45;0.98;;;;;;;12.28;86.79;151767.03;10584754;28;20044;-73
2023/10/08 16:52:19;;;;;;;1.85;0.90;;;;;;;12.28;86.12;151767.03;10585645;28;20476;-73
2023/10/08 16:57:22;;;;;;;2.50;1.48;;;;;;;12.06;89.76;151710.16;10570914;28;20044;-73
2023/10/08 17:02:24;;;;;;;6.13;1.20;;;;;;;11.94;90.60;151680.41;10587957;28;20043;-73
2023/10/08 17:07:26;;;;;;;1.80;1.15;;;;;;;11.91;89.05;151672.69;10587707;28;20584;-75
2023/10/08 17:12:28;;;;;;;1.48;1.30;;;;;;;11.78;90.55;151639.03;10586346;28;20051;-74
2023/10/08 17:17:30;;;;;;;1.80;1.17;;;;;;;11.70;92.15;151619.63;10590793;28;20044;-74
2023/10/08 17:22:33;;;;;;;1.83;1.10;;;;;;;11.61;92.92;151596.38;10587830;28;20039;-74
2023/10/08 17:27:36;;;;;;;2.03;1.10;;;;;;;11.56;94.41;151584.75;10577425;28;20552;-74
2023/10/08 17:32:38;;;;;;;2.25;1.10;;;;;;;11.65;92.78;151606.72;10575948;28;20391;-74
2023/10/08 17:37:40;;;;;;;8.05;2.35;;;;;;;11.94;87.83;151679.13;10578490;28;20058;-74
2023/10/08 17:42:42;;;;;;;2.25;1.48;;;;;;;11.94;87.81;151680.41;10574309;28;20499;-74
2023/10/08 17:47:45;;;;;;;2.88;1.45;;;;;;;11.93;89.62;151677.84;10592514;28;20040;-74
2023/10/08 17:52:48;;;;;;;1.48;0.95;;;;;;;11.79;91.15;151642.88;10573967;28;20044;-74
2023/10/08 17:57:50;;;;;;;1.85;1.33;;;;;;;12.18;86.77;151739.91;10591895;28;20040;-74
2023/10/08 18:02:52;;;;;;;2.50;0.95;;;;;;;12.17;85.71;151738.56;10593371;28;20047;-73
2023/10/08 18:07:55;;;;;;;1.15;0.95;;;;;;;11.86;88.90;151659.72;10590058;28;20608;-74
2023/10/08 18:12:57;;;;;;;2.60;1.67;;;;;;;11.91;86.85;151672.69;10590565;28;20047;-74
2023/10/08 18:17:59;;;;;;;3.05;1.35;;;;;;;11.98;84.99;151690.75;10591019;28;20040;-73
2023/10/08 18:23:02;;;;;;;1.65;1.55;;;;;;;11.91;85.76;151671.34;10574117;28;20040;-74
2023/10/08 18:28:04;;;;;;;2.03;1.25;;;;;;;11.91;88.95;151671.34;10589604;28;20492;-73
2023/10/08 18:33:08;;;;;;;2.60;1.50;;;;;;;11.83;86.44;151652.00;10591512;28;20044;-73
2023/10/08 18:38:10;;;;;;;3.28;1.80;;;;;;;11.95;85.71;151682.97;10589160;28;20031;-73
2023/10/08 18:43:18;;;;;;;4.43;2.22;;;;;;;11.89;87.26;151667.47;10573928;28;20059;-74
2023/10/08 18:48:21;;;;;;;3.35;2.17;;;;;;;11.86;87.58;151661.06;10571286;28;20036;-73
2023/10/08 18:53:23;;;;;;;2.55;1.48;;;;;;;11.92;85.04;151675.25;10570330;28;20048;-73
2023/10/08 18:58:25;;;;;;;3.60;1.50;;;;;;;11.80;87.24;151645.47;10588650;28;20047;-73
2023/10/08 19:03:27;;;;;;;2.17;1.40;;;;;;;11.67;88.92;151611.88;10591980;28;20059;-73
2023/10/08 19:08:30;;;;;;;3.13;1.30;;;;;;;11.62;88.36;151598.94;10589762;28;20046;-75
2023/10/08 19:13:33;;;;;;;2.90;1.45;;;;;;;11.41;91.74;151545.97;10588953;28;20032;-73
2023/10/08 19:18:41;;;;;;;6.18;1.70;;;;;;;11.58;89.27;151589.91;10587741;28;20032;-73
2023/10/08 19:23:44;;;;;;;2.42;1.10;;;;;;;11.88;87.27;151664.91;10589578;28;20468;-74
2023/10/08 19:28:46;;;;;;;2.38;1.17;;;;;;;11.59;90.25;151592.47;10589968;28;20039;-74
2023/10/08 19:33:48;;;;;;;2.22;1.95;;;;;;;11.47;90.71;151561.50;10568179;28;20056;-74
2023/10/08 19:38:50;;;;;;;2.40;1.40;;;;;;;11.34;92.22;151529.19;10586893;28;20039;-74
2023/10/08 19:43:53;;;;;;;2.22;1.20;;;;;;;11.11;95.26;151469.72;10586860;28;20123;-74
2023/10/08 19:48:56;;;;;;;2.85;1.15;;;;;;;10.99;96.56;151438.78;10589792;28;20046;-74
2023/10/08 19:53:59;;;;;;;1.77;1.20;;;;;;;10.90;97.68;151416.81;10569582;28;20054;-74
2023/10/08 19:59:02;;;;;;;2.00;1.42;;;;;;;10.93;98.87;151423.25;10552720;28;20410;-74
2023/10/08 20:04:05;;;;;;;3.05;1.35;;;;;;;10.95;98.52;151428.44;10568661;28;20039;-74
2023/10/08 20:09:07;;;;;;;2.85;1.38;;;;;;;10.85;98.23;151405.19;10571039;28;20119;-74
2023/10/08 20:14:09;;;;;;;2.65;1.50;;;;;;;11.08;94.77;151463.31;10570507;28;20043;-74
2023/10/08 20:19:11;;;;;;;2.25;1.10;;;;;;;11.03;94.40;151450.41;10569065;28;20043;-73
2023/10/08 20:24:13;;;;;;;2.70;1.13;;;;;;;10.85;97.86;151405.19;10586592;28;20050;-74
2023/10/08 20:29:15;;;;;;;2.40;1.42;;;;;;;11.37;92.99;151536.91;10569776;28;20057;-73
2023/10/08 20:34:18;;;;;;;2.03;1.23;;;;;;;11.45;92.72;151555.00;10591725;28;20126;-74
2023/10/08 20:39:29;;;;;;;1.80;1.25;;;;;;;11.29;94.29;151516.28;10585450;28;20031;-73
2023/10/08 20:44:33;;;;;;;1.90;1.27;;;;;;;11.22;93.44;151498.16;10585549;28;20131;-73
2023/10/08 20:49:37;;;;;;;1.85;1.48;;;;;;;11.14;95.00;151476.22;10586089;28;20074;-73
2023/10/08 20:54:39;;;;;;;3.28;1.60;;;;;;;11.22;93.39;151496.88;10570240;28;20388;-73
2023/10/08 20:59:41;;;;;;;2.15;1.30;;;;;;;11.23;94.00;151499.47;10573047;28;20047;-73
2023/10/08 21:04:42;;;;;;;3.53;1.70;;;;;;;11.17;94.15;151483.97;10595667;28;20047;-72
2023/10/08 21:09:44;;;;;;;1.83;1.40;;;;;;;11.15;94.76;151478.78;10594932;28;20040;-72
2023/10/08 21:14:46;;;;;;;1.75;1.40;;;;;;;11.18;93.95;151486.56;10594854;28;20043;-73
2023/10/08 21:19:48;;;;;;;3.25;1.40;;;;;;;11.18;95.43;151486.56;10593115;28;20057;-73
2023/10/08 21:24:50;;;;;;;2.47;2.00;;;;;;;10.99;97.54;151438.78;10592275;28;20104;-74
2023/10/08 21:29:51;;;;;;;2.53;1.60;;;;;;;10.94;98.40;151427.16;10592748;28;20039;-72
2023/10/08 21:34:55;;;;;;;1.92;1.20;;;;;;;10.86;100.00;151407.75;10590928;28;20137;-72
2023/10/08 21:39:56;;;;;;;2.70;1.67;;;;;;;10.84;100.00;151402.56;10577433;28;20043;-73
2023/10/08 21:44:58;;;;;;;2.05;1.50;;;;;;;11.14;96.58;151476.22;10574715;28;20463;-73
2023/10/08 21:50:02;;;;;;;1.65;1.33;;;;;;;11.34;93.66;151527.91;10591576;28;20403;-73
2023/10/08 21:55:05;;;;;;;2.20;1.20;;;;;;;11.26;94.77;151507.22;10572660;28;20113;-74
2023/10/08 22:05:33;;;;;;;3.42;1.40;;;;;;;10.96;97.52;151432.28;10593084;28;20552;-73
2023/10/08 22:10:36;;;;;;;2.88;1.35;;;;;;;10.88;100.00;151411.63;10589283;28;20043;-74
2023/10/08 22:15:47;;;;;;;1.50;1.40;;;;;;;10.82;100.00;151397.44;10571820;28;20530;-74
2023/10/08 22:20:51;;;;;;;2.85;1.40;;;;;;;10.91;100.00;151418.09;10574623;28;20052;-74
2023/10/08 22:25:53;;;;;;;1.58;1.25;;;;;;;11.27;98.05;151509.81;10590624;28;20052;-74
2023/10/08 22:30:55;;;;;;;2.40;1.70;;;;;;;11.19;98.13;151489.13;10588990;28;20031;-74
2023/10/08 22:35:57;;;;;;;2.38;1.67;;;;;;;11.09;100.00;151465.88;10589341;28;20039;-73
2023/10/08 22:46:09;;;;;;;3.03;1.63;;;;;;;11.13;100.00;151474.91;10587996;28;20044;-73
2023/10/08 22:51:24;;;;;;;1.63;1.25;;;;;;;11.04;100.00;151451.69;10570589;28;20043;-73
2023/10/08 22:56:27;;;;;;;1.45;1.23;;;;;;;11.17;99.72;151485.25;10587226;28;20503;-74
2023/10/08 23:01:29;;;;;;;1.77;1.42;;;;;;;11.13;100.00;151473.63;10587004;28;20043;-73
2023/10/08 23:06:31;;;;;;;2.20;1.30;;;;;;;11.15;100.00;151480.06;10588911;28;20112;-73
2023/10/08 23:11:34;;;;;;;2.25;1.70;;;;;;;11.32;100.00;151524.00;10586343;28;20108;-73
2023/10/08 23:16:39;;;;;;;2.45;1.25;;;;;;;11.13;100.00;151473.63;10567919;28;20138;-74
2023/10/08 23:21:44;;;;;;;2.95;1.67;;;;;;;11.29;100.00;151515.00;10566844;28;20406;-73
2023/10/08 23:26:46;;;;;;;1.60;1.20;;;;;;;11.13;100.00;151473.63;10587958;28;20122;-72
2023/10/08 23:31:48;;;;;;;1.98;1.50;;;;;;;10.93;100.00;151423.25;10585442;28;20031;-74
2023/10/08 23:36:55;;;;;;;1.67;0.98;;;;;;;10.96;100.00;151432.28;10584485;28;20069;-74
2023/10/08 23:42:20;;;;;;;2.10;1.30;;;;;;;11.23;99.96;151499.47;10585820;28;20070;-74
2023/10/08 23:47:26;;;;;;;2.13;1.40;;;;;;;11.16;100.00;151481.41;10569453;28;20054;-74
2023/10/08 23:52:33;;;;;;;2.17;1.30;;;;;;;11.22;100.00;151496.88;10586514;28;20039;-74
2023/10/08 23:57:47;;;;;;;3.17;1.57;;;;;;;11.27;98.59;151509.81;10568091;28;20518;-74
